createdAt,value
2023-05-20T00:01:50.437Z,15.66
2023-05-20T00:04:19.660Z,15.61
2023-05-20T00:06:46.741Z,15.55
2023-05-20T00:09:13.771Z,15.50
2023-05-20T00:11:40.751Z,15.43
2023-05-20T00:14:07.701Z,15.39
2023-05-20T00:16:34.737Z,15.36
2023-05-20T00:19:01.881Z,15.39
2023-05-20T00:21:31.286Z,15.32
2023-05-20T00:23:58.581Z,15.26
2023-05-20T00:26:26.664Z,15.22
2023-05-20T00:28:55.696Z,15.23
2023-05-20T00:31:23.013Z,15.25
2023-05-20T00:33:50.073Z,15.28
2023-05-20T00:36:17.124Z,15.31
2023-05-20T00:38:45.596Z,15.32
2023-05-20T00:41:12.753Z,15.30
2023-05-20T00:43:39.780Z,15.23
2023-05-20T00:46:06.953Z,15.12
2023-05-20T00:48:40.993Z,15.06
2023-05-20T00:51:08.293Z,15.06
2023-05-20T00:53:36.375Z,15.03
2023-05-20T00:56:05.781Z,15.04
2023-05-20T00:58:32.989Z,15.04
2023-05-20T01:01:00.171Z,15.02
2023-05-20T01:03:28.144Z,15.01
2023-05-20T01:05:55.580Z,14.98
2023-05-20T01:08:23.339Z,14.92
2023-05-20T01:11:03.884Z,14.84
2023-05-20T01:13:37.024Z,14.80
2023-05-20T01:16:05.163Z,14.80
2023-05-20T01:18:33.521Z,14.81
2023-05-20T01:21:03.071Z,14.82
2023-05-20T01:23:40.118Z,14.82
2023-05-20T01:26:10.466Z,14.73
2023-05-20T01:28:39.544Z,14.68
2023-05-20T01:31:13.291Z,14.66
2023-05-20T01:33:42.130Z,14.68
2023-05-20T01:36:11.253Z,14.70
2023-05-20T01:38:41.729Z,14.73
2023-05-20T01:41:09.865Z,14.77
2023-05-20T01:43:37.813Z,14.78
2023-05-20T01:46:06.689Z,14.81
2023-05-20T01:48:34.676Z,14.86
2023-05-20T01:51:01.944Z,14.89
2023-05-20T01:53:29.621Z,14.84
2023-05-20T01:55:57.996Z,14.80
2023-05-20T01:58:26.867Z,14.71
2023-05-20T02:00:53.915Z,14.70
2023-05-20T02:03:21.066Z,14.70
2023-05-20T02:05:48.202Z,14.71
2023-05-20T02:08:15.375Z,14.74
2023-05-20T02:10:42.380Z,14.78
2023-05-20T02:13:10.986Z,14.83
2023-05-20T02:15:41.625Z,14.86
2023-05-20T02:18:08.876Z,14.87
2023-05-20T02:20:36.769Z,14.92
2023-05-20T02:23:05.962Z,14.91
2023-05-20T02:25:33.301Z,14.93
2023-05-20T02:28:00.824Z,14.93
2023-05-20T02:30:29.610Z,14.91
2023-05-20T02:32:58.016Z,14.93
2023-05-20T02:35:25.387Z,14.95
2023-05-20T02:37:52.553Z,14.93
2023-05-20T02:40:19.740Z,14.90
2023-05-20T02:42:47.002Z,14.90
2023-05-20T02:45:14.296Z,14.87
2023-05-20T02:47:42.886Z,14.79
2023-05-20T02:50:10.698Z,14.74
2023-05-20T02:52:37.913Z,14.71
2023-05-20T02:55:06.395Z,14.67
2023-05-20T02:57:35.180Z,14.66
2023-05-20T03:00:02.497Z,14.58
2023-05-20T03:02:29.576Z,14.55
2023-05-20T03:04:58.149Z,14.55
2023-05-20T03:07:25.259Z,14.57
2023-05-20T03:09:52.582Z,14.58
2023-05-20T03:12:19.842Z,14.61
2023-05-20T03:14:47.249Z,14.63
2023-05-20T03:17:14.255Z,14.69
2023-05-20T03:19:41.310Z,14.72
2023-05-20T03:22:10.071Z,14.77
2023-05-20T03:24:37.075Z,14.83
2023-05-20T03:27:04.694Z,14.88
2023-05-20T03:29:33.692Z,14.89
2023-05-20T03:32:01.112Z,14.90
2023-05-20T03:34:30.263Z,14.90
2023-05-20T03:36:57.593Z,14.89
2023-05-20T03:39:26.315Z,14.86
2023-05-20T03:41:53.383Z,14.89
2023-05-20T03:44:21.143Z,14.90
2023-05-20T03:46:48.485Z,14.95
2023-05-20T03:49:15.683Z,14.94
2023-05-20T03:51:42.866Z,14.98
2023-05-20T03:54:12.354Z,15.05
2023-05-20T03:56:41.307Z,15.08
2023-05-20T03:59:08.582Z,15.09
2023-05-20T04:01:35.583Z,15.13
2023-05-20T04:04:02.767Z,15.22
2023-05-20T04:06:30.192Z,15.23
2023-05-20T04:08:58.423Z,15.22
2023-05-20T04:11:25.978Z,15.23
2023-05-20T04:13:54.841Z,15.23
2023-05-20T04:16:22.017Z,15.26
2023-05-20T04:18:49.497Z,15.32
2023-05-20T04:21:17.006Z,15.35
2023-05-20T04:23:44.276Z,15.42
2023-05-20T04:26:11.381Z,15.45
2023-05-20T04:28:39.068Z,15.53
2023-05-20T04:31:08.264Z,15.59
2023-05-20T04:33:39.854Z,15.63
2023-05-20T04:36:09.797Z,15.68
2023-05-20T04:38:37.435Z,15.78
2023-05-20T04:41:04.956Z,15.85
2023-05-20T04:43:33.793Z,15.90
2023-05-20T04:46:01.571Z,15.96
2023-05-20T04:48:30.100Z,16.06
2023-05-20T04:50:57.178Z,16.15
2023-05-20T04:53:26.216Z,16.27
2023-05-20T04:55:55.095Z,16.34
2023-05-20T04:58:24.387Z,16.48
2023-05-20T05:00:52.552Z,16.52
2023-05-20T05:03:19.927Z,16.55
2023-05-20T05:05:48.472Z,16.59
2023-05-20T05:08:16.786Z,16.60
2023-05-20T05:10:49.105Z,16.62
2023-05-20T05:13:16.327Z,16.59
2023-05-20T05:15:43.552Z,16.57
2023-05-20T05:18:11.887Z,16.55
2023-05-20T05:20:39.584Z,16.55
2023-05-20T05:23:07.977Z,16.58
2023-05-20T05:25:35.452Z,16.59
2023-05-20T05:28:02.734Z,16.59
2023-05-20T05:30:30.639Z,16.59
2023-05-20T05:32:57.874Z,16.59
2023-05-20T05:35:26.043Z,16.59
2023-05-20T05:37:53.061Z,16.59
2023-05-20T05:40:22.733Z,16.61
2023-05-20T05:42:49.776Z,16.58
2023-05-20T05:45:16.993Z,16.58
2023-05-20T05:47:44.088Z,16.59
2023-05-20T05:50:11.500Z,16.62
2023-05-20T05:52:38.680Z,16.64
2023-05-20T05:55:09.645Z,16.67
2023-05-20T05:57:38.503Z,16.70
2023-05-20T06:00:07.288Z,16.72
2023-05-20T06:02:45.105Z,16.75
2023-05-20T06:05:16.989Z,16.82
2023-05-20T06:07:45.517Z,16.90
2023-05-20T06:10:12.682Z,16.91
2023-05-20T06:12:41.211Z,16.91
2023-05-20T06:15:09.301Z,16.95
2023-05-20T06:17:36.444Z,17.00
2023-05-20T06:20:06.883Z,17.09
2023-05-20T06:22:34.911Z,17.18
2023-05-20T06:25:03.267Z,17.27
2023-05-20T06:27:32.359Z,17.38
2023-05-20T06:30:01.009Z,17.48
2023-05-20T06:32:29.554Z,17.61
2023-05-20T06:34:57.531Z,17.71
2023-05-20T06:37:24.621Z,17.78
2023-05-20T06:39:54.097Z,17.83
2023-05-20T06:42:21.515Z,17.91
2023-05-20T06:45:05.095Z,17.97
2023-05-20T06:47:41.682Z,18.04
2023-05-20T06:50:10.591Z,18.09
2023-05-20T06:52:37.684Z,18.14
2023-05-20T06:55:05.246Z,18.17
2023-05-20T06:57:34.321Z,18.15
2023-05-20T07:00:01.690Z,18.12
2023-05-20T07:02:31.532Z,18.11
2023-05-20T07:04:58.750Z,18.12
2023-05-20T07:07:25.952Z,18.12
2023-05-20T07:09:54.816Z,18.11
2023-05-20T07:12:22.406Z,18.12
2023-05-20T07:14:49.473Z,18.14
2023-05-20T07:17:16.779Z,18.16
2023-05-20T07:19:46.676Z,18.17
2023-05-20T07:22:14.805Z,18.18
2023-05-20T07:24:54.576Z,18.20
2023-05-20T07:27:21.592Z,18.24
2023-05-20T07:29:49.099Z,18.27
2023-05-20T07:32:17.315Z,18.25
2023-05-20T07:34:48.434Z,18.23
2023-05-20T07:37:16.489Z,18.25
2023-05-20T07:39:43.625Z,18.25
2023-05-20T07:42:10.872Z,18.26
2023-05-20T07:44:40.951Z,18.23
2023-05-20T07:47:08.892Z,18.21
2023-05-20T07:49:35.961Z,18.20
2023-05-20T07:52:05.629Z,18.21
2023-05-20T07:54:32.804Z,18.24
2023-05-20T07:57:01.040Z,18.29
2023-05-20T07:59:29.364Z,18.30
2023-05-20T08:01:57.263Z,18.34
2023-05-20T08:04:24.910Z,18.35
2023-05-20T08:06:52.849Z,18.37
2023-05-20T08:09:28.188Z,18.38
2023-05-20T08:11:56.766Z,18.41
2023-05-20T08:14:24.138Z,18.45
2023-05-20T08:16:54.962Z,18.49
2023-05-20T08:19:22.589Z,18.51
2023-05-20T08:21:50.067Z,18.54
2023-05-20T08:24:17.898Z,18.59
2023-05-20T08:26:46.371Z,18.62
2023-05-20T08:29:14.361Z,18.72
2023-05-20T08:31:41.479Z,18.79
2023-05-20T08:34:08.787Z,18.85
2023-05-20T08:36:36.655Z,18.95
2023-05-20T08:39:04.673Z,19.06
2023-05-20T08:41:32.718Z,19.11
2023-05-20T08:44:02.598Z,19.17
2023-05-20T08:46:34.628Z,19.21
2023-05-20T08:49:02.851Z,19.26
2023-05-20T08:51:31.291Z,19.37
2023-05-20T08:54:00.042Z,19.49
2023-05-20T08:56:30.708Z,19.57
2023-05-20T08:59:03.605Z,19.74
2023-05-20T09:01:30.866Z,19.92
2023-05-20T09:03:57.872Z,20.07
2023-05-20T09:06:24.928Z,20.19
2023-05-20T09:08:53.002Z,20.29
2023-05-20T09:11:20.311Z,20.36
2023-05-20T09:13:47.297Z,20.45
2023-05-20T09:16:15.986Z,20.54
2023-05-20T09:18:46.409Z,20.60
2023-05-20T09:21:13.533Z,20.68
2023-05-20T09:23:40.524Z,20.76
2023-05-20T09:26:07.719Z,20.84
2023-05-20T09:28:38.281Z,20.94
2023-05-20T09:31:08.926Z,21.14
2023-05-20T09:33:37.471Z,21.41
2023-05-20T09:36:05.478Z,21.66
2023-05-20T09:38:39.095Z,21.94
2023-05-20T09:41:08.779Z,22.20
2023-05-20T09:43:36.873Z,22.41
2023-05-20T09:46:04.590Z,22.58
2023-05-20T09:48:34.177Z,22.70
2023-05-20T09:51:04.493Z,22.89
2023-05-20T09:53:31.659Z,22.96
2023-05-20T09:55:59.013Z,22.99
2023-05-20T09:58:26.796Z,23.17
2023-05-20T10:00:54.158Z,23.31
2023-05-20T10:03:24.986Z,23.61
2023-05-20T10:06:14.340Z,24.28
2023-05-20T10:08:58.020Z,24.92
2023-05-20T10:11:33.226Z,25.42
2023-05-20T10:14:13.994Z,25.48
2023-05-20T10:16:48.199Z,25.79
2023-05-20T10:19:28.660Z,26.10
2023-05-20T10:22:01.813Z,26.28
2023-05-20T10:24:33.544Z,26.43
2023-05-20T10:27:03.379Z,26.76
2023-05-20T10:29:43.252Z,27.16
2023-05-20T10:32:11.275Z,27.27
2023-05-20T10:34:47.083Z,27.34
2023-05-20T10:37:24.890Z,27.61
2023-05-20T10:40:04.123Z,27.82
2023-05-20T10:42:31.208Z,28.02
2023-05-20T10:44:58.272Z,28.18
2023-05-20T10:47:26.580Z,28.29
2023-05-20T10:49:55.060Z,28.34
2023-05-20T10:52:24.550Z,28.51
2023-05-20T10:54:59.179Z,28.65
2023-05-20T10:57:28.987Z,28.88
2023-05-20T10:59:56.850Z,29.07
2023-05-20T11:02:27.214Z,29.01
2023-05-20T11:04:56.940Z,28.93
2023-05-20T11:07:31.102Z,29.00
2023-05-20T11:09:58.738Z,29.10
2023-05-20T11:12:26.813Z,29.25
2023-05-20T11:14:54.382Z,29.50
2023-05-20T11:17:21.578Z,29.52
2023-05-20T11:19:51.654Z,29.43
2023-05-20T11:22:19.096Z,29.31
2023-05-20T11:24:47.609Z,28.95
2023-05-20T11:27:14.873Z,29.11
2023-05-20T11:29:42.235Z,29.46
2023-05-20T11:32:10.367Z,29.38
2023-05-20T11:34:39.599Z,29.32
2023-05-20T11:37:09.200Z,29.33
2023-05-20T11:39:37.162Z,29.48
2023-05-20T11:42:06.412Z,29.78
2023-05-20T11:44:33.795Z,30.02
2023-05-20T11:47:02.346Z,30.26
2023-05-20T11:49:30.874Z,30.29
2023-05-20T11:51:58.475Z,29.96
2023-05-20T11:54:26.142Z,29.55
2023-05-20T11:56:54.895Z,29.43
2023-05-20T11:59:24.928Z,29.48
2023-05-20T12:01:52.035Z,29.43
2023-05-20T12:04:19.241Z,29.39
2023-05-20T12:06:46.872Z,29.49
2023-05-20T12:09:16.590Z,29.84
2023-05-20T12:11:45.157Z,30.16
2023-05-20T12:14:12.210Z,30.27
2023-05-20T12:16:40.892Z,30.44
2023-05-20T12:19:08.831Z,30.58
2023-05-20T12:21:36.377Z,30.57
2023-05-20T12:24:06.324Z,30.25
2023-05-20T12:26:35.263Z,29.85
2023-05-20T12:29:02.392Z,29.46
2023-05-20T12:31:31.019Z,29.08
2023-05-20T12:34:00.755Z,28.75
2023-05-20T12:36:30.196Z,28.34
2023-05-20T12:38:57.230Z,27.85
2023-05-20T12:41:24.607Z,26.95
2023-05-20T12:43:51.657Z,25.37
2023-05-20T12:46:19.398Z,24.24
2023-05-20T12:48:46.708Z,23.37
2023-05-20T12:51:15.207Z,22.56
2023-05-20T12:53:42.207Z,21.73
2023-05-20T12:56:09.326Z,20.52
2023-05-20T14:33:32.028Z,19.27
2023-05-20T14:35:59.184Z,19.16
2023-05-20T14:38:26.864Z,19.17
2023-05-20T14:40:54.224Z,19.18
2023-05-20T14:43:21.596Z,19.17
2023-05-20T14:45:49.074Z,19.14
2023-05-20T14:48:16.492Z,19.16
2023-05-20T14:50:45.021Z,19.13
2023-05-20T14:53:12.073Z,19.09
2023-05-20T14:55:39.138Z,19.05
2023-05-20T14:58:09.273Z,19.07
2023-05-20T15:00:36.800Z,19.01
2023-05-20T15:03:04.276Z,18.95
2023-05-20T15:05:31.416Z,19.03
2023-05-20T15:08:00.288Z,19.20
2023-05-20T15:10:27.430Z,19.23
2023-05-20T15:12:54.458Z,19.22
2023-05-20T15:15:24.236Z,19.30
2023-05-20T15:17:51.430Z,19.40
2023-05-20T15:20:19.018Z,19.48
2023-05-20T15:22:47.992Z,19.51
2023-05-20T15:25:16.963Z,19.59
2023-05-20T15:27:45.688Z,19.54
2023-05-20T15:30:14.023Z,19.48
2023-05-20T15:32:44.179Z,19.39
2023-05-20T15:35:11.609Z,19.33
2023-05-20T15:37:38.625Z,19.36
2023-05-20T15:40:07.351Z,19.33
2023-05-20T15:42:36.255Z,19.37
2023-05-20T15:45:03.500Z,19.41
2023-05-20T15:47:30.669Z,19.50
2023-05-20T15:49:58.023Z,19.51
2023-05-20T15:52:25.061Z,19.46
2023-05-20T15:54:52.088Z,19.48
2023-05-20T15:57:22.756Z,19.45
2023-05-20T15:59:52.161Z,19.48
2023-05-20T16:02:19.331Z,19.46
2023-05-20T16:04:46.722Z,19.45
2023-05-20T16:07:14.338Z,19.33
2023-05-20T16:09:41.353Z,19.23
2023-05-20T16:12:08.358Z,19.20
2023-05-20T16:14:35.656Z,19.14
2023-05-20T16:17:04.678Z,19.12
2023-05-20T16:19:31.836Z,19.16
2023-05-20T16:21:58.889Z,19.14
2023-05-20T16:24:26.067Z,19.10
2023-05-20T16:26:54.005Z,19.08
2023-05-20T16:29:23.371Z,19.10
2023-05-20T16:31:50.506Z,19.11
2023-05-20T16:34:18.968Z,19.11
2023-05-20T16:36:46.408Z,19.09
2023-05-20T16:39:13.619Z,19.02
2023-05-20T16:41:41.006Z,18.99
2023-05-20T16:44:08.047Z,18.99
2023-05-20T16:46:35.201Z,18.97
2023-05-20T16:49:02.383Z,18.90
2023-05-20T16:51:31.155Z,18.80
2023-05-20T16:53:58.529Z,18.77
2023-05-20T16:56:26.239Z,18.71
2023-05-20T16:58:53.427Z,18.59
2023-05-20T17:01:21.534Z,18.45
2023-05-20T17:03:49.225Z,18.30
2023-05-20T17:06:17.656Z,18.08
2023-05-20T17:08:46.627Z,17.92
2023-05-20T17:11:13.675Z,17.81
2023-05-20T17:13:41.682Z,17.69
2023-05-20T17:16:09.932Z,17.65
2023-05-20T17:18:37.562Z,17.62
2023-05-20T17:21:04.943Z,17.60
2023-05-20T17:23:34.529Z,17.59
2023-05-20T17:26:03.137Z,17.56
2023-05-20T17:28:30.138Z,17.53
2023-05-20T17:30:57.410Z,17.58
2023-05-20T17:33:24.904Z,17.59
2023-05-20T17:35:51.972Z,17.60
2023-05-20T17:38:22.227Z,17.63
2023-05-20T17:40:51.151Z,17.69
2023-05-20T17:43:19.651Z,17.70
2023-05-20T17:45:47.564Z,17.69
2023-05-20T17:48:14.671Z,17.68
2023-05-20T17:50:41.833Z,17.64
2023-05-20T17:53:09.323Z,17.58
2023-05-20T17:55:36.742Z,17.57
2023-05-20T17:58:03.933Z,17.58
2023-05-20T18:00:34.510Z,17.57
2023-05-20T18:03:01.892Z,17.59
2023-05-20T18:05:29.563Z,17.60
2023-05-20T18:07:57.415Z,17.60
2023-05-20T18:10:24.391Z,17.56
2023-05-20T18:12:51.840Z,17.45
2023-05-20T18:15:19.016Z,17.30
2023-05-20T18:17:47.768Z,17.12
2023-05-20T18:20:14.828Z,17.05
2023-05-20T18:22:45.291Z,16.88
2023-05-20T18:25:12.934Z,16.81
2023-05-20T18:27:40.612Z,16.76
2023-05-20T18:30:08.960Z,16.71
2023-05-20T18:32:36.342Z,16.70
2023-05-20T18:35:05.372Z,16.67
2023-05-20T18:37:33.121Z,16.64
2023-05-20T18:40:00.537Z,16.60
2023-05-20T18:42:27.652Z,16.60
2023-05-20T18:44:54.847Z,16.66
2023-05-20T18:47:22.001Z,16.71
2023-05-20T18:49:49.085Z,16.67
2023-05-20T18:52:17.652Z,16.54
2023-05-20T18:54:46.509Z,16.44
2023-05-20T18:57:13.635Z,16.34
2023-05-20T18:59:41.410Z,16.33
2023-05-20T19:02:08.435Z,16.30
2023-05-20T19:04:35.470Z,16.22
2023-05-20T19:07:02.562Z,16.21
2023-05-20T19:09:31.264Z,16.15
2023-05-20T19:12:01.065Z,16.07
2023-05-20T19:14:28.092Z,16.07
2023-05-20T19:16:55.502Z,16.06
2023-05-20T19:19:22.533Z,16.08
2023-05-20T19:21:50.337Z,16.09
2023-05-20T19:24:19.870Z,16.10
2023-05-20T19:26:48.286Z,16.07
2023-05-20T19:29:15.512Z,16.02
2023-05-20T19:31:43.276Z,16.02
2023-05-20T19:34:10.337Z,16.02
2023-05-20T19:36:38.437Z,16.04
2023-05-20T19:39:05.544Z,16.05
2023-05-20T19:41:32.629Z,16.06
2023-05-20T19:44:02.362Z,16.07
2023-05-20T19:46:29.376Z,16.04
2023-05-20T19:48:57.472Z,16.03
2023-05-20T19:51:24.670Z,15.96
2023-05-20T19:53:51.777Z,15.91
2023-05-20T19:56:24.069Z,15.84
2023-05-20T19:58:51.591Z,15.79
2023-05-20T20:01:20.484Z,15.73
2023-05-20T20:03:47.582Z,15.68
2023-05-20T20:06:14.965Z,15.66
2023-05-20T20:08:41.985Z,15.60
2023-05-20T20:11:09.378Z,15.53
2023-05-20T20:13:36.461Z,15.48
2023-05-20T20:16:03.580Z,15.45
2023-05-20T20:18:32.278Z,15.46
2023-05-20T20:21:05.840Z,15.44
2023-05-20T20:23:33.286Z,15.45
2023-05-20T20:26:00.375Z,15.50
2023-05-20T20:28:27.389Z,15.52
2023-05-20T20:30:54.595Z,15.54
2023-05-20T20:33:21.709Z,15.60
2023-05-20T20:35:51.193Z,15.61
2023-05-20T20:38:18.323Z,15.63
2023-05-20T20:40:46.054Z,15.63
2023-05-20T20:43:20.534Z,15.60
2023-05-20T20:45:50.761Z,15.60
2023-05-20T20:48:18.910Z,15.56
2023-05-20T20:50:47.829Z,15.52
2023-05-20T20:53:17.193Z,15.46
2023-05-20T20:55:46.152Z,15.38
2023-05-20T20:58:15.389Z,15.39
2023-05-20T21:00:45.130Z,15.32
2023-05-20T21:03:13.145Z,15.29
2023-05-20T21:05:40.380Z,15.26
2023-05-20T21:08:08.577Z,15.18
2023-05-20T21:10:38.279Z,15.09
2023-05-20T21:13:05.629Z,15.03
2023-05-20T21:15:32.896Z,14.99
2023-05-20T21:18:00.004Z,15.01
2023-05-20T21:20:27.042Z,15.01
2023-05-20T21:22:54.226Z,14.98
2023-05-20T21:25:21.263Z,14.98
2023-05-20T21:27:49.654Z,14.98
2023-05-20T21:30:17.359Z,15.00
2023-05-20T21:32:44.445Z,14.97
2023-05-20T21:35:11.865Z,15.00
2023-05-20T21:37:38.889Z,14.99
2023-05-20T21:40:07.547Z,15.02
2023-05-20T21:42:34.608Z,15.03
2023-05-20T21:45:03.245Z,15.10
2023-05-20T21:47:30.438Z,15.10
2023-05-20T21:49:57.949Z,15.07
2023-05-20T21:52:24.951Z,15.05
2023-05-20T21:54:51.967Z,15.08
2023-05-20T21:57:19.081Z,15.08
2023-05-20T21:59:46.922Z,15.04
2023-05-20T22:02:16.006Z,15.03
2023-05-20T22:04:43.581Z,15.02
2023-05-20T22:07:10.800Z,15.06
2023-05-20T22:09:37.797Z,15.03
2023-05-20T22:12:05.534Z,15.04
2023-05-20T22:14:32.615Z,15.04
2023-05-20T22:16:59.676Z,15.02
2023-05-20T22:19:28.230Z,14.91
2023-05-20T22:21:55.691Z,14.83
2023-05-20T22:24:22.897Z,14.81
2023-05-20T22:26:49.968Z,14.83
2023-05-20T22:29:17.141Z,14.82
2023-05-20T22:31:44.119Z,14.86
2023-05-20T22:34:11.235Z,14.91
2023-05-20T22:36:39.840Z,14.95
2023-05-20T22:39:07.138Z,14.95
2023-05-20T22:41:34.170Z,14.95
2023-05-20T22:44:01.396Z,14.93
2023-05-20T22:46:28.652Z,14.90
2023-05-20T22:48:58.271Z,14.91
2023-05-20T22:51:25.449Z,14.88
2023-05-20T22:53:54.255Z,14.86
2023-05-20T22:56:21.327Z,14.83
2023-05-20T22:58:48.296Z,14.79
2023-05-20T23:01:16.765Z,14.78
2023-05-20T23:03:46.933Z,14.72
2023-05-20T23:06:14.201Z,14.71
2023-05-20T23:08:44.605Z,14.72
2023-05-20T23:11:13.047Z,14.70
2023-05-20T23:13:40.125Z,14.69
2023-05-20T23:16:07.706Z,14.65
2023-05-20T23:18:34.919Z,14.63
2023-05-20T23:21:02.499Z,14.62
2023-05-20T23:23:31.783Z,14.62
2023-05-20T23:25:59.851Z,14.63
2023-05-20T23:28:28.525Z,14.63
2023-05-20T23:30:56.629Z,14.63
2023-05-20T23:33:25.091Z,14.63
2023-05-20T23:35:52.576Z,14.68
2023-05-20T23:38:19.594Z,14.70
2023-05-20T23:40:46.567Z,14.70
2023-05-20T23:43:14.088Z,14.71
2023-05-20T23:45:42.719Z,14.73
2023-05-20T23:48:13.520Z,14.72
2023-05-20T23:50:40.770Z,14.73
2023-05-20T23:53:07.887Z,14.73
2023-05-20T23:55:38.068Z,14.75
2023-05-20T23:58:05.238Z,14.78
